createdAt,value
2023-02-21T00:00:36.900Z,67.10
2023-02-21T00:03:22.490Z,67.20
2023-02-21T00:06:07.967Z,67.20
2023-02-21T00:08:53.221Z,67.20
2023-02-21T00:11:38.724Z,67.10
2023-02-21T00:14:24.300Z,67.10
2023-02-21T00:17:09.766Z,67.10
2023-02-21T00:19:55.290Z,67.10
2023-02-21T00:22:40.826Z,67.10
2023-02-21T00:25:26.444Z,67.10
2023-02-21T00:28:11.917Z,67.10
2023-02-21T00:30:57.548Z,67.10
2023-02-21T00:33:42.948Z,67.00
2023-02-21T00:36:28.351Z,67.10
2023-02-21T00:39:13.711Z,67.00
2023-02-21T00:41:59.049Z,67.00
2023-02-21T00:44:44.379Z,67.00
2023-02-21T00:47:29.621Z,67.00
2023-02-21T00:50:14.849Z,66.90
2023-02-21T00:52:59.975Z,67.00
2023-02-21T00:55:45.510Z,66.90
2023-02-21T00:58:30.979Z,66.90
2023-02-21T01:01:17.312Z,66.90
2023-02-21T01:04:02.732Z,66.90
2023-02-21T01:06:47.914Z,66.90
2023-02-21T01:09:34.439Z,66.90
2023-02-21T01:12:19.733Z,66.90
2023-02-21T01:15:05.477Z,66.90
2023-02-21T01:17:50.651Z,66.90
2023-02-21T01:20:36.275Z,66.90
2023-02-21T01:23:23.646Z,66.80
2023-02-21T01:26:09.176Z,66.80
2023-02-21T01:28:55.591Z,66.80
2023-02-21T01:31:41.265Z,66.80
2023-02-21T01:34:26.773Z,66.70
2023-02-21T01:37:12.220Z,66.70
2023-02-21T01:39:57.608Z,66.70
2023-02-21T01:42:42.886Z,66.70
2023-02-21T01:45:40.532Z,66.80
2023-02-21T01:48:29.329Z,66.70
2023-02-21T01:51:17.112Z,66.70
2023-02-21T01:54:03.484Z,66.70
2023-02-21T01:56:49.724Z,66.70
2023-02-21T01:59:36.913Z,66.70
2023-02-21T02:02:41.273Z,66.60
2023-02-21T02:05:29.064Z,66.70
2023-02-21T02:08:14.676Z,66.60
2023-02-21T02:11:01.612Z,66.60
2023-02-21T02:13:31.847Z,66.70
2023-02-21T02:16:15.787Z,66.60
2023-02-21T02:19:14.809Z,66.60
2023-02-21T02:21:47.315Z,67.20
2023-02-21T02:24:29.073Z,66.60
2023-02-21T02:27:19.769Z,66.50
2023-02-21T02:29:55.557Z,66.50
2023-02-21T02:32:29.337Z,66.40
2023-02-21T02:35:11.305Z,66.50
2023-02-21T02:38:09.070Z,66.40
2023-02-21T02:41:13.045Z,66.40
2023-02-21T02:43:59.679Z,66.40
2023-02-21T02:46:34.233Z,66.40
2023-02-21T02:49:06.068Z,66.40
2023-02-21T02:51:35.049Z,66.30
2023-02-21T02:54:04.596Z,66.40
2023-02-21T02:56:33.676Z,66.30
2023-02-21T02:59:12.313Z,66.30
2023-02-21T03:02:13.489Z,66.40
2023-02-21T03:05:13.402Z,66.30
2023-02-21T03:07:51.410Z,66.30
2023-02-21T03:10:46.204Z,66.30
2023-02-21T03:14:09.425Z,66.30
2023-02-21T03:16:51.566Z,66.30
2023-02-21T03:19:29.426Z,66.20
2023-02-21T03:22:03.800Z,66.20
2023-02-21T03:24:32.240Z,66.20
2023-02-21T03:27:05.611Z,66.30
2023-02-21T03:29:56.216Z,66.20
2023-02-21T03:32:34.657Z,66.20
2023-02-21T03:35:03.130Z,66.20
2023-02-21T03:37:37.369Z,66.20
2023-02-21T03:40:08.542Z,66.20
2023-02-21T03:42:35.364Z,66.10
2023-02-21T03:45:02.510Z,66.10
2023-02-21T03:47:29.231Z,66.20
2023-02-21T03:49:56.473Z,66.10
2023-02-21T03:52:23.321Z,66.10
2023-02-21T03:54:50.529Z,66.10
2023-02-21T03:57:22.355Z,66.00
2023-02-21T03:59:50.012Z,66.10
2023-02-21T04:02:16.998Z,66.00
2023-02-21T04:04:44.594Z,66.10
2023-02-21T04:07:16.279Z,65.90
2023-02-21T04:09:44.540Z,65.90
2023-02-21T04:12:15.865Z,66.00
2023-02-21T04:14:42.678Z,65.90
2023-02-21T04:17:09.453Z,66.00
2023-02-21T04:19:36.386Z,66.00
2023-02-21T04:22:06.278Z,65.90
2023-02-21T04:24:33.164Z,65.90
2023-02-21T04:27:02.182Z,65.90
2023-02-21T04:29:31.735Z,66.00
2023-02-21T04:31:58.722Z,65.90
2023-02-21T04:34:25.526Z,65.80
2023-02-21T04:36:52.550Z,65.90
2023-02-21T04:39:19.519Z,65.80
2023-02-21T04:41:47.879Z,65.80
2023-02-21T04:44:14.610Z,65.80
2023-02-21T04:46:41.378Z,65.70
2023-02-21T04:49:08.531Z,65.90
2023-02-21T04:51:35.220Z,65.90
2023-02-21T04:54:01.928Z,65.80
2023-02-21T04:56:29.227Z,65.80
2023-02-21T04:58:56.554Z,65.80
2023-02-21T05:01:27.380Z,65.80
2023-02-21T05:03:54.213Z,65.80
2023-02-21T05:06:23.609Z,65.80
2023-02-21T05:08:50.448Z,65.80
2023-02-21T05:11:18.582Z,65.80
2023-02-21T05:13:45.315Z,65.70
2023-02-21T05:16:12.746Z,65.80
2023-02-21T05:18:42.349Z,65.70
2023-02-21T05:21:09.493Z,65.80
2023-02-21T05:23:36.928Z,65.80
2023-02-21T05:26:05.788Z,65.70
2023-02-21T05:28:32.547Z,65.70
2023-02-21T05:31:01.056Z,65.70
2023-02-21T05:33:28.055Z,65.70
2023-02-21T05:35:55.617Z,65.70
2023-02-21T05:38:24.690Z,65.80
2023-02-21T05:40:51.887Z,65.70
2023-02-21T05:43:19.029Z,65.80
2023-02-21T05:45:45.758Z,65.90
2023-02-21T05:48:12.536Z,65.80
2023-02-21T05:50:39.704Z,65.70
2023-02-21T05:53:06.841Z,65.80
2023-02-21T05:55:33.696Z,65.70
2023-02-21T05:58:00.415Z,65.70
2023-02-21T06:00:29.516Z,65.70
2023-02-21T06:02:57.175Z,65.70
2023-02-21T06:05:24.290Z,65.70
2023-02-21T06:07:51.390Z,65.70
2023-02-21T06:10:19.244Z,65.70
2023-02-21T06:12:46.380Z,65.70
2023-02-21T06:15:13.398Z,65.60
2023-02-21T06:17:41.474Z,65.60
2023-02-21T06:20:10.938Z,65.90
2023-02-21T06:22:37.705Z,65.70
2023-02-21T06:25:04.935Z,65.60
2023-02-21T06:27:31.609Z,65.60
2023-02-21T06:29:58.492Z,65.60
2023-02-21T06:32:25.241Z,65.60
2023-02-21T06:34:51.958Z,65.60
2023-02-21T06:37:19.580Z,65.60
2023-02-21T06:39:46.317Z,65.60
2023-02-21T06:42:18.021Z,65.50
2023-02-21T06:44:49.123Z,65.60
2023-02-21T06:47:16.312Z,65.60
2023-02-21T06:49:43.436Z,65.60
2023-02-21T06:52:11.251Z,65.50
2023-02-21T06:54:38.378Z,65.50
2023-02-21T06:57:05.739Z,65.60
2023-02-21T06:59:32.562Z,65.50
2023-02-21T07:01:59.523Z,65.40
2023-02-21T07:04:26.549Z,65.50
2023-02-21T07:06:53.353Z,66.10
2023-02-21T07:09:20.129Z,65.50
2023-02-21T07:11:47.099Z,65.40
2023-02-21T07:14:14.545Z,65.40
2023-02-21T07:16:41.366Z,65.40
2023-02-21T07:19:08.153Z,65.40
2023-02-21T07:21:35.020Z,65.40
2023-02-21T07:24:01.904Z,65.50
2023-02-21T07:26:28.649Z,65.50
2023-02-21T07:28:55.448Z,65.40
2023-02-21T07:31:22.609Z,65.50
2023-02-21T07:33:49.547Z,65.40
2023-02-21T07:36:16.715Z,65.50
2023-02-21T07:38:43.689Z,65.50
2023-02-21T07:41:10.357Z,66.10
2023-02-21T07:43:39.055Z,65.50
2023-02-21T07:46:10.827Z,65.50
2023-02-21T07:48:37.622Z,65.40
2023-02-21T07:51:06.388Z,65.70
2023-02-21T07:53:33.190Z,65.70
2023-02-21T07:55:59.994Z,65.50
2023-02-21T07:58:26.827Z,65.50
2023-02-21T08:00:55.524Z,65.60
2023-02-21T08:03:23.399Z,65.60
2023-02-21T08:05:50.099Z,65.80
2023-02-21T08:08:17.198Z,65.60
2023-02-21T08:10:44.088Z,65.50
2023-02-21T08:13:10.860Z,65.60
2023-02-21T08:15:37.628Z,65.60
2023-02-21T08:18:05.284Z,65.90
2023-02-21T08:20:32.319Z,65.50
2023-02-21T08:22:59.453Z,65.40
2023-02-21T08:25:26.130Z,65.50
2023-02-21T08:27:55.214Z,65.60
2023-02-21T08:30:23.028Z,65.20
2023-02-21T08:32:51.255Z,65.30
2023-02-21T08:35:19.771Z,65.20
2023-02-21T08:37:50.878Z,65.20
2023-02-21T08:40:20.657Z,65.00
2023-02-21T08:42:52.506Z,65.10
2023-02-21T08:45:22.103Z,65.10
2023-02-21T08:47:49.500Z,65.10
2023-02-21T08:50:17.055Z,65.00
2023-02-21T08:52:46.225Z,65.00
2023-02-21T08:55:13.169Z,65.00
2023-02-21T08:57:39.914Z,64.90
2023-02-21T09:00:11.269Z,65.00
2023-02-21T09:02:41.837Z,65.00
2023-02-21T09:05:18.972Z,65.00
2023-02-21T09:07:48.583Z,64.90
2023-02-21T09:10:15.371Z,65.00
2023-02-21T09:12:42.124Z,65.00
2023-02-21T09:15:09.806Z,65.00
2023-02-21T09:17:36.757Z,65.10
2023-02-21T09:20:09.224Z,64.90
2023-02-21T09:22:38.621Z,64.90
2023-02-21T09:25:07.427Z,65.00
2023-02-21T09:27:36.923Z,64.90
2023-02-21T09:30:20.449Z,65.00
2023-02-21T09:32:48.046Z,65.00
2023-02-21T09:35:15.596Z,65.00
2023-02-21T09:37:44.197Z,64.80
2023-02-21T09:40:23.097Z,64.90
2023-02-21T09:42:52.554Z,64.90
2023-02-21T09:45:22.381Z,64.90
2023-02-21T09:47:57.827Z,64.90
2023-02-21T09:50:31.067Z,64.90
2023-02-21T09:52:59.017Z,65.00
2023-02-21T09:55:38.790Z,64.90
2023-02-21T09:58:13.923Z,65.00
2023-02-21T10:00:44.018Z,64.90
2023-02-21T10:03:47.108Z,64.90
2023-02-21T10:06:24.710Z,65.00
2023-02-21T10:09:03.343Z,65.10
2023-02-21T10:11:55.892Z,65.00
2023-02-21T10:14:38.427Z,64.70
2023-02-21T10:17:07.167Z,64.90
2023-02-21T10:19:42.184Z,65.10
2023-02-21T10:22:23.332Z,65.10
2023-02-21T10:24:51.680Z,65.00
2023-02-21T10:27:24.662Z,65.00
2023-02-21T10:30:26.160Z,65.00
2023-02-21T10:32:53.860Z,65.00
2023-02-21T10:35:20.631Z,65.00
2023-02-21T10:37:51.663Z,64.90
2023-02-21T10:40:37.169Z,65.00
2023-02-21T10:43:28.802Z,64.90
2023-02-21T10:46:34.319Z,65.00
2023-02-21T10:49:24.631Z,64.90
2023-02-21T10:52:23.651Z,64.60
2023-02-21T10:55:09.721Z,64.80
2023-02-21T10:57:43.830Z,64.80
2023-02-21T11:00:37.410Z,64.90
2023-02-21T11:03:31.420Z,65.00
2023-02-21T11:05:58.571Z,64.80
2023-02-21T11:08:40.670Z,64.90
2023-02-21T11:11:07.561Z,65.00
2023-02-21T11:13:36.120Z,64.80
2023-02-21T11:16:20.261Z,65.00
2023-02-21T11:18:46.947Z,65.00
2023-02-21T11:21:16.364Z,64.90
2023-02-21T11:23:53.051Z,65.00
2023-02-21T11:26:19.803Z,65.00
2023-02-21T11:28:47.984Z,64.90
2023-02-21T11:31:33.252Z,65.10
2023-02-21T11:34:01.363Z,65.00
2023-02-21T11:36:36.921Z,65.10
2023-02-21T11:39:31.534Z,64.90
2023-02-21T11:42:03.201Z,65.10
2023-02-21T11:44:35.074Z,65.10
2023-02-21T11:47:25.220Z,65.00
2023-02-21T11:50:32.932Z,65.10
2023-02-21T11:53:18.788Z,65.00
2023-02-21T11:56:12.973Z,65.00
2023-02-21T11:59:09.812Z,65.20
2023-02-21T12:01:50.166Z,65.20
2023-02-21T12:04:37.916Z,65.30
2023-02-21T12:07:29.408Z,65.20
2023-02-21T12:10:08.905Z,65.10
2023-02-21T12:12:51.615Z,65.10
2023-02-21T12:15:24.936Z,65.10
2023-02-21T12:18:24.179Z,65.30
2023-02-21T12:21:09.782Z,65.20
2023-02-21T12:23:36.511Z,65.20
2023-02-21T12:26:08.872Z,65.30
2023-02-21T12:28:56.884Z,65.40
2023-02-21T12:31:45.572Z,65.50
2023-02-21T12:34:34.133Z,65.50
2023-02-21T12:37:17.709Z,65.40
2023-02-21T12:40:03.894Z,65.40
2023-02-21T12:42:52.522Z,65.40
2023-02-21T12:45:46.987Z,65.40
2023-02-21T12:48:32.594Z,65.60
2023-02-21T12:51:06.457Z,65.10
2023-02-21T12:53:49.920Z,65.10
2023-02-21T12:56:23.897Z,65.40
2023-02-21T12:59:03.184Z,65.40
2023-02-21T13:01:44.053Z,65.50
2023-02-21T13:04:27.853Z,65.50
2023-02-21T13:07:19.032Z,65.40
2023-02-21T13:09:52.962Z,65.40
2023-02-21T13:12:23.391Z,65.20
2023-02-21T13:15:00.895Z,65.40
2023-02-21T13:17:27.892Z,65.50
2023-02-21T13:20:06.320Z,65.40
2023-02-21T13:23:10.260Z,65.60
2023-02-21T13:26:06.060Z,65.50
2023-02-21T13:28:36.441Z,65.50
2023-02-21T13:31:06.015Z,65.60
2023-02-21T13:33:45.222Z,65.60
2023-02-21T13:36:28.494Z,65.50
2023-02-21T13:39:09.159Z,65.50
2023-02-21T13:41:39.433Z,65.50
2023-02-21T13:44:10.655Z,65.20
2023-02-21T13:46:37.331Z,65.70
2023-02-21T13:49:37.807Z,65.70
2023-02-21T13:52:51.525Z,65.70
2023-02-21T13:55:18.665Z,65.70
2023-02-21T13:57:49.311Z,65.60
2023-02-21T14:00:24.598Z,65.70
2023-02-21T14:03:18.178Z,65.70
2023-02-21T14:05:47.646Z,65.60
2023-02-21T14:08:30.645Z,65.70
2023-02-21T14:11:06.214Z,65.70
2023-02-21T14:13:42.065Z,65.70
2023-02-21T14:16:09.260Z,65.70
2023-02-21T14:18:39.043Z,65.70
2023-02-21T14:21:26.136Z,65.70
2023-02-21T14:24:11.732Z,65.70
2023-02-21T14:26:52.087Z,65.70
2023-02-21T14:30:12.659Z,65.70
2023-02-21T14:32:46.355Z,65.70
2023-02-21T14:35:31.951Z,65.70
2023-02-21T14:38:08.700Z,65.70
2023-02-21T14:40:49.124Z,65.70
2023-02-21T14:43:28.278Z,65.70
2023-02-21T14:46:09.925Z,65.70
2023-02-21T14:48:48.928Z,65.70
2023-02-21T14:51:30.621Z,65.70
2023-02-21T14:54:43.191Z,65.70
2023-02-21T14:57:55.252Z,65.70
2023-02-21T15:00:47.982Z,65.70
2023-02-21T15:03:34.001Z,65.70
2023-02-21T15:06:03.128Z,65.70
2023-02-21T15:08:50.932Z,65.70
2023-02-21T15:11:34.614Z,65.70
2023-02-21T15:14:24.698Z,65.70
2023-02-21T15:16:53.419Z,65.70
2023-02-21T15:19:25.611Z,65.70
2023-02-21T15:22:13.273Z,65.70
2023-02-21T15:24:40.002Z,65.70
2023-02-21T15:27:12.073Z,65.70
2023-02-21T15:29:42.322Z,65.70
2023-02-21T15:32:12.488Z,65.70
2023-02-21T15:34:43.215Z,65.70
2023-02-21T15:37:25.768Z,65.70
2023-02-21T15:39:59.926Z,65.80
2023-02-21T15:42:28.031Z,65.70
2023-02-21T15:45:01.924Z,65.80
2023-02-21T15:47:32.982Z,65.70
2023-02-21T15:50:02.441Z,65.70
2023-02-21T15:52:36.879Z,65.70
2023-02-21T15:55:19.872Z,65.90
2023-02-21T15:58:12.549Z,65.70
2023-02-21T16:01:09.708Z,65.90
2023-02-21T16:03:43.217Z,65.70
2023-02-21T16:06:21.085Z,65.90
2023-02-21T16:09:14.922Z,65.70
2023-02-21T16:11:55.581Z,65.70
2023-02-21T16:14:36.716Z,65.70
2023-02-21T16:17:08.612Z,65.70
2023-02-21T16:19:36.669Z,65.70
2023-02-21T16:22:21.571Z,65.70
2023-02-21T16:24:48.274Z,65.70
2023-02-21T16:27:17.191Z,65.60
2023-02-21T16:29:44.079Z,65.70
2023-02-21T16:32:28.760Z,65.60
2023-02-21T16:34:55.518Z,65.60
2023-02-21T16:37:23.182Z,65.60
2023-02-21T16:39:49.947Z,65.90
2023-02-21T16:42:16.781Z,65.60
2023-02-21T16:44:43.877Z,65.70
2023-02-21T16:47:15.141Z,65.70
2023-02-21T16:49:42.640Z,65.60
2023-02-21T16:52:14.906Z,65.60
2023-02-21T16:54:41.953Z,65.70
2023-02-21T16:57:09.990Z,65.60
2023-02-21T16:59:37.316Z,65.60
2023-02-21T17:02:04.994Z,65.60
2023-02-21T17:04:31.698Z,65.60
2023-02-21T17:07:02.065Z,65.60
2023-02-21T17:09:29.941Z,65.60
2023-02-21T17:11:56.688Z,65.60
2023-02-21T17:14:23.369Z,65.90
2023-02-21T17:16:50.114Z,65.70
2023-02-21T17:19:19.668Z,65.90
2023-02-21T17:21:47.013Z,65.80
2023-02-21T17:24:14.725Z,65.80
2023-02-21T17:26:42.029Z,65.70
2023-02-21T17:29:09.258Z,65.80
2023-02-21T17:31:36.042Z,65.90
2023-02-21T17:34:03.666Z,66.00
2023-02-21T17:36:31.002Z,65.90
2023-02-21T17:38:59.037Z,65.90
2023-02-21T17:41:27.480Z,65.90
2023-02-21T17:43:54.432Z,65.90
2023-02-21T17:46:21.313Z,66.00
2023-02-21T17:48:48.080Z,66.00
2023-02-21T17:51:21.622Z,66.00
2023-02-21T17:53:48.974Z,66.00
2023-02-21T17:56:22.107Z,66.00
2023-02-21T17:58:48.915Z,66.00
2023-02-21T18:01:18.610Z,66.00
2023-02-21T18:03:47.617Z,66.00
2023-02-21T18:06:15.499Z,66.00
2023-02-21T18:08:44.859Z,66.10
2023-02-21T18:11:13.468Z,66.10
2023-02-21T18:13:40.791Z,66.10
2023-02-21T18:16:08.112Z,66.10
2023-02-21T18:18:35.814Z,66.10
2023-02-21T18:21:02.538Z,66.10
2023-02-21T18:23:30.643Z,66.10
2023-02-21T18:25:57.852Z,66.20
2023-02-21T18:28:24.995Z,66.20
2023-02-21T18:30:53.833Z,66.10
2023-02-21T18:33:23.207Z,66.20
2023-02-21T18:35:50.253Z,66.20
2023-02-21T18:38:16.961Z,66.20
2023-02-21T18:40:47.237Z,66.20
2023-02-21T18:43:20.281Z,66.20
2023-02-21T18:45:49.230Z,66.20
2023-02-21T18:48:16.459Z,66.20
2023-02-21T18:50:43.936Z,66.30
2023-02-21T18:53:11.005Z,66.30
2023-02-21T18:55:38.595Z,66.20
2023-02-21T18:58:06.753Z,66.30
2023-02-21T19:00:36.192Z,66.30
2023-02-21T19:03:06.408Z,66.30
2023-02-21T19:05:33.892Z,66.30
2023-02-21T19:08:01.595Z,66.30
2023-02-21T19:10:29.678Z,66.30
2023-02-21T19:12:59.284Z,66.40
2023-02-21T19:15:26.621Z,66.40
2023-02-21T19:17:53.304Z,66.30
2023-02-21T19:20:20.423Z,66.30
2023-02-21T19:22:47.668Z,66.40
2023-02-21T19:25:16.815Z,66.40
2023-02-21T19:27:44.824Z,66.40
2023-02-21T19:30:13.459Z,66.40
2023-02-21T19:32:40.312Z,66.40
2023-02-21T19:35:08.307Z,66.40
2023-02-21T19:37:36.056Z,66.30
2023-02-21T19:40:07.426Z,66.40
2023-02-21T19:42:35.301Z,66.40
2023-02-21T19:45:05.089Z,66.40
2023-02-21T19:47:34.336Z,66.40
2023-02-21T19:50:01.101Z,66.40
2023-02-21T19:52:28.836Z,66.40
2023-02-21T19:54:55.600Z,66.50
2023-02-21T19:57:22.261Z,66.40
2023-02-21T19:59:49.020Z,66.50
2023-02-21T20:02:16.060Z,66.40
2023-02-21T20:04:43.530Z,66.40
2023-02-21T20:07:11.578Z,66.40
2023-02-21T20:09:39.309Z,66.40
2023-02-21T20:12:06.997Z,66.50
2023-02-21T20:14:33.725Z,66.40
2023-02-21T20:17:00.411Z,66.50
2023-02-21T20:19:27.743Z,66.40
2023-02-21T20:21:54.471Z,66.40
2023-02-21T20:24:21.316Z,66.40
2023-02-21T20:26:52.794Z,66.40
2023-02-21T20:29:21.397Z,66.50
2023-02-21T20:31:48.348Z,66.50
2023-02-21T20:34:15.148Z,66.50
2023-02-21T20:36:45.017Z,66.50
2023-02-21T20:39:22.564Z,66.40
2023-02-21T20:41:49.303Z,66.40
2023-02-21T20:44:16.129Z,66.40
2023-02-21T20:46:42.856Z,66.40
2023-02-21T20:49:14.059Z,66.40
2023-02-21T20:51:42.960Z,66.50
2023-02-21T20:54:12.719Z,66.40
2023-02-21T20:56:41.116Z,66.50
2023-02-21T20:59:15.704Z,66.50
2023-02-21T21:01:50.062Z,66.50
2023-02-21T21:04:26.440Z,66.50
2023-02-21T21:06:56.884Z,66.50
2023-02-21T21:09:33.906Z,66.40
2023-02-21T21:12:07.259Z,66.50
2023-02-21T21:14:37.346Z,66.50
2023-02-21T21:17:04.357Z,66.50
2023-02-21T21:19:33.928Z,66.70
2023-02-21T21:22:02.381Z,66.50
2023-02-21T21:24:29.209Z,66.40
2023-02-21T21:26:58.632Z,66.40
2023-02-21T21:29:25.948Z,66.50
2023-02-21T21:31:54.522Z,66.40
2023-02-21T21:34:23.262Z,66.40
2023-02-21T21:36:51.960Z,66.40
2023-02-21T21:39:23.108Z,66.40
2023-02-21T21:41:52.564Z,66.40
2023-02-21T21:44:23.168Z,66.40
2023-02-21T21:46:51.310Z,66.40
2023-02-21T21:49:20.778Z,66.40
2023-02-21T21:51:49.130Z,66.40
2023-02-21T21:54:20.671Z,66.40
2023-02-21T21:56:48.266Z,66.40
2023-02-21T21:59:20.731Z,66.40
2023-02-21T22:01:47.710Z,66.40
2023-02-21T22:04:14.495Z,66.40
2023-02-21T22:06:42.617Z,66.40
2023-02-21T22:09:15.166Z,66.30
2023-02-21T22:11:44.200Z,66.40
2023-02-21T22:14:11.884Z,66.40
2023-02-21T22:16:40.480Z,66.40
2023-02-21T22:19:07.816Z,66.40
2023-02-21T22:21:35.060Z,66.40
2023-02-21T22:24:03.046Z,66.40
2023-02-21T22:26:31.067Z,66.40
2023-02-21T22:28:58.734Z,66.40
2023-02-21T22:31:27.192Z,66.40
2023-02-21T22:33:59.091Z,66.40
2023-02-21T22:36:26.394Z,66.40
2023-02-21T22:38:55.770Z,66.30
2023-02-21T22:41:31.669Z,67.00
2023-02-21T22:43:58.655Z,66.30
2023-02-21T22:46:27.263Z,66.30
2023-02-21T22:48:55.393Z,66.30
2023-02-21T22:51:27.410Z,66.30
2023-02-21T22:53:54.412Z,66.30
2023-02-21T22:56:24.743Z,66.30
2023-02-21T22:58:54.991Z,66.30
2023-02-21T23:01:26.386Z,66.30
2023-02-21T23:04:10.725Z,66.30
2023-02-21T23:06:38.190Z,66.30
2023-02-21T23:09:12.129Z,66.20
2023-02-21T23:11:46.052Z,66.30
2023-02-21T23:14:15.732Z,66.80
2023-02-21T23:16:43.230Z,66.20
2023-02-21T23:19:10.615Z,66.20
2023-02-21T23:21:48.191Z,66.20
2023-02-21T23:24:16.125Z,66.20
2023-02-21T23:26:46.115Z,66.20
2023-02-21T23:29:24.007Z,66.20
2023-02-21T23:31:51.074Z,66.20
2023-02-21T23:34:19.660Z,66.20
2023-02-21T23:36:46.334Z,66.20
2023-02-21T23:39:15.030Z,66.10
2023-02-21T23:41:44.200Z,66.10
2023-02-21T23:44:12.847Z,66.10
2023-02-21T23:46:42.339Z,66.20
2023-02-21T23:49:11.835Z,66.10
2023-02-21T23:51:39.132Z,66.10
2023-02-21T23:54:07.195Z,66.10
2023-02-21T23:56:35.539Z,66.10
2023-02-21T23:59:06.014Z,66.10
